Time;durP1;ratioP1;P1;durP2;ratioP2;P2;SDS_P1;SDS_P2;PMS_P1;PMS_P2;Temp;Humidity;BMP_temperature;BMP_pressure;BME280_temperature;BME280_humidity;BME280_pressure;Samples;Min_cycle;Max_cycle;Signal;HPM_P1;HPM_P2
2022/10/22 00:01:27;;;;;;;57.75;41.05;;;;;;;9.26;76.92;100870.33;1704956;82;21011;-87
2022/10/22 00:03:54;;;;;;;57.95;41.33;;;;;;;9.30;77.03;100872.20;1712187;82;21724;-87
2022/10/22 00:06:22;;;;;;;55.28;40.55;;;;;;;9.31;77.00;100870.06;1758558;80;21434;-87
2022/10/22 00:08:51;;;;;;;57.43;40.78;;;;;;;9.31;77.03;100869.63;1722258;82;20974;-87
2022/10/22 00:11:18;;;;;;;60.98;40.55;;;;;;;9.34;77.15;100871.45;1699566;83;21436;-87
2022/10/22 00:13:45;;;;;;;52.45;40.33;;;;;;;9.36;77.06;100869.77;1738438;81;21420;-87
2022/10/22 00:16:12;;;;;;;54.83;39.08;;;;;;;9.36;77.06;100870.20;1717512;82;21505;-87
2022/10/22 00:18:39;;;;;;;55.58;39.58;;;;;;;9.36;77.13;100869.77;1726717;82;21025;-88
2022/10/22 00:21:06;;;;;;;56.30;38.25;;;;;;;9.36;77.16;100862.31;1745293;82;20978;-88
2022/10/22 00:23:34;;;;;;;54.40;39.50;;;;;;;9.37;77.20;100866.73;1744909;81;21458;-87
2022/10/22 00:26:00;;;;;;;56.00;39.10;;;;;;;9.38;77.24;100869.82;1714928;82;21007;-88
2022/10/22 00:28:32;;;;;;;57.67;41.85;;;;;;;9.38;77.27;100863.25;1738546;82;21709;-87
2022/10/22 00:31:04;;;;;;;54.25;39.58;;;;;;;9.39;77.34;100861.11;1738344;82;21062;-87
2022/10/22 00:33:31;;;;;;;57.48;40.12;;;;;;;9.42;77.43;100861.19;1723391;82;21567;-87
2022/10/22 00:36:01;;;;;;;55.98;40.03;;;;;;;9.43;77.41;100861.24;1730651;82;21605;-87
2022/10/22 00:38:28;;;;;;;64.20;42.25;;;;;;;9.45;77.40;100861.30;1724978;81;21093;-87
2022/10/22 00:40:54;;;;;;;51.15;40.00;;;;;;;9.46;77.48;100856.09;1726727;82;21735;-87
2022/10/22 00:43:21;;;;;;;62.08;40.50;;;;;;;9.46;77.45;100857.41;1674648;83;21064;-87
2022/10/22 00:45:48;;;;;;;56.58;40.58;;;;;;;9.45;77.38;100851.66;1759546;80;21485;-87
2022/10/22 00:48:19;;;;;;;52.70;39.63;;;;;;;9.42;77.41;100846.73;1736715;82;22392;-87
2022/10/22 00:50:59;;;;;;;53.20;39.53;;;;;;;9.42;77.49;100845.42;1716805;82;21344;-87
2022/10/22 00:53:46;;;;;;;62.45;41.70;;;;;;;9.42;77.59;100841.08;1712961;83;21744;-87
2022/10/22 00:56:13;;;;;;;65.50;40.20;;;;;;;9.43;77.60;100838.91;1726182;82;21071;-87
2022/10/22 00:58:46;;;;;;;59.50;41.15;;;;;;;9.44;77.66;100835.45;1726296;82;21122;-87
2022/10/22 01:01:20;;;;;;;60.33;42.40;;;;;;;9.45;77.68;100837.22;1705522;83;21491;-87
2022/10/22 01:03:46;;;;;;;57.33;41.18;;;;;;;9.43;77.73;100837.59;1738429;80;20998;-87
2022/10/22 01:06:26;;;;;;;56.37;39.53;;;;;;;9.48;77.74;100832.07;1763922;80;21641;-86
2022/10/22 01:09:03;;;;;;;56.88;40.03;;;;;;;9.46;77.67;100828.50;1738861;81;20991;-87
2022/10/22 01:12:13;;;;;;;58.60;40.23;;;;;;;9.44;77.69;100830.59;1722299;82;21011;-87
2022/10/22 01:14:54;;;;;;;58.10;40.50;;;;;;;9.45;77.80;100821.88;1703373;82;21006;-87
2022/10/22 01:17:47;;;;;;;54.70;39.03;;;;;;;9.45;77.78;100821.45;1696103;83;21021;-87
2022/10/22 01:20:52;;;;;;;53.05;37.58;;;;;;;9.44;77.81;100809.58;1742298;80;22604;-87
2022/10/22 01:23:46;;;;;;;50.98;36.75;;;;;;;9.44;77.90;100806.55;1747850;80;21350;-87
2022/10/22 01:26:52;;;;;;;49.13;36.05;;;;;;;9.44;77.90;100806.55;1738654;82;21580;-88
2022/10/22 01:29:23;;;;;;;46.98;34.78;;;;;;;9.47;78.00;100805.73;1627303;86;21657;-88
2022/10/22 01:31:54;;;;;;;49.67;35.68;;;;;;;9.46;77.91;100811.42;1664766;85;21026;-88
2022/10/22 01:34:21;;;;;;;46.10;34.58;;;;;;;9.45;77.96;100806.12;1699330;82;21735;-87
2022/10/22 01:36:48;;;;;;;49.70;34.50;;;;;;;9.44;77.96;100806.55;1685641;83;21803;-87
2022/10/22 01:39:18;;;;;;;48.02;34.23;;;;;;;9.45;78.07;100800.86;1681825;84;21407;-87
2022/10/22 01:41:47;;;;;;;45.15;34.08;;;;;;;9.47;78.08;100800.48;1673113;84;21550;-87
2022/10/22 01:44:31;;;;;;;46.33;33.20;;;;;;;9.47;78.12;100797.86;1673543;84;21065;-87
2022/10/22 01:47:09;;;;;;;46.90;34.53;;;;;;;9.48;78.13;100803.59;1636652;85;21756;-87
2022/10/22 01:50:14;;;;;;;42.58;31.75;;;;;;;9.48;78.13;100803.16;1676744;83;21024;-87
2022/10/22 01:53:08;;;;;;;50.10;34.33;;;;;;;9.50;78.14;100797.96;1673752;84;21488;-87
2022/10/22 01:56:05;;;;;;;44.35;34.05;;;;;;;9.51;78.16;100797.09;1659209;83;21512;-87
2022/10/22 01:59:06;;;;;;;51.20;33.08;;;;;;;9.52;78.14;100791.02;1673333;84;21646;-87
2022/10/22 02:02:02;;;;;;;47.45;34.70;;;;;;;9.53;78.14;100792.78;1673688;84;22862;-87
2022/10/22 02:04:33;;;;;;;48.58;34.15;;;;;;;9.52;78.13;100794.95;1681878;83;21829;-87
2022/10/22 02:07:02;;;;;;;43.98;32.63;;;;;;;9.50;78.08;100797.53;1762200;79;20962;-88
2022/10/22 02:09:29;;;;;;;45.48;34.53;;;;;;;9.49;78.20;100794.42;1738781;81;21540;-87
2022/10/22 02:11:57;;;;;;;44.90;32.73;;;;;;;9.50;78.14;100798.84;1738035;82;21623;-88
2022/10/22 02:14:23;;;;;;;44.98;32.73;;;;;;;9.50;78.25;100790.96;1736850;82;21977;-88
2022/10/22 02:16:50;;;;;;;41.25;32.42;;;;;;;9.51;78.27;100795.78;1736602;82;21141;-87
2022/10/22 02:19:34;;;;;;;49.33;32.67;;;;;;;9.52;78.31;100791.89;1736358;82;21049;-87
2022/10/22 02:22:01;;;;;;;41.05;31.05;;;;;;;9.52;78.24;100785.33;1736247;82;22117;-87
2022/10/22 02:24:28;;;;;;;41.30;30.95;;;;;;;9.52;78.22;100787.08;1741364;81;21005;-87
2022/10/22 02:27:22;;;;;;;47.40;32.25;;;;;;;9.50;78.23;100783.51;1750540;80;21829;-87
2022/10/22 02:30:07;;;;;;;41.10;30.92;;;;;;;9.50;78.24;100783.51;1703742;81;21053;-87
2022/10/22 02:32:44;;;;;;;40.73;31.15;;;;;;;9.50;78.21;100791.39;1714985;82;21117;-88
2022/10/22 02:35:16;;;;;;;44.30;30.30;;;;;;;9.49;78.23;100789.16;1733532;81;21283;-87
2022/10/22 02:37:43;;;;;;;40.92;30.45;;;;;;;9.47;78.18;100799.17;1750854;81;21072;-87
2022/10/22 02:40:10;;;;;;;41.35;30.92;;;;;;;9.44;78.22;100793.41;1750948;81;21756;-87
2022/10/22 02:42:37;;;;;;;44.10;31.37;;;;;;;9.44;78.36;100794.73;1750734;81;21076;-87
2022/10/22 02:45:05;;;;;;;41.55;29.80;;;;;;;9.45;78.36;100793.86;1707290;81;21540;-87
2022/10/22 02:47:31;;;;;;;40.35;29.85;;;;;;;9.45;78.34;100791.67;1726780;82;21106;-87
2022/10/22 02:49:58;;;;;;;40.80;31.62;;;;;;;9.44;78.33;100793.41;1748809;81;21144;-87
2022/10/22 02:52:25;;;;;;;38.08;29.32;;;;;;;9.43;78.37;100786.36;1751072;81;21732;-87
2022/10/22 02:54:52;;;;;;;38.63;30.55;;;;;;;9.43;78.37;100785.48;1751081;81;21128;-88
2022/10/22 02:57:19;;;;;;;40.73;30.97;;;;;;;9.42;78.34;100782.37;1750736;81;21120;-87
2022/10/22 02:59:46;;;;;;;38.05;31.25;;;;;;;9.40;78.34;100783.63;1750687;80;21128;-87
2022/10/22 03:02:13;;;;;;;41.25;30.35;;;;;;;9.39;78.33;100785.81;1750996;81;21077;-87
2022/10/22 03:04:40;;;;;;;38.60;30.95;;;;;;;9.36;78.31;100789.64;1724613;81;21785;-86
2022/10/22 03:07:07;;;;;;;39.85;29.18;;;;;;;9.31;78.33;100786.89;1740344;81;21093;-87
2022/10/22 03:09:34;;;;;;;40.85;28.95;;;;;;;9.28;78.34;100792.47;1756138;80;21521;-87
2022/10/22 03:12:01;;;;;;;39.27;30.32;;;;;;;9.27;78.41;100785.41;1750861;81;22054;-87
2022/10/22 03:14:27;;;;;;;41.73;28.77;;;;;;;9.26;78.40;100790.22;1751304;81;20994;-87
2022/10/22 03:16:54;;;;;;;40.75;28.15;;;;;;;9.24;78.43;100792.80;1751388;81;22402;-87
2022/10/22 03:19:21;;;;;;;38.50;28.67;;;;;;;9.24;78.47;100796.73;1750538;81;21324;-87
2022/10/22 03:21:57;;;;;;;39.48;29.72;;;;;;;9.22;78.44;100796.23;1750961;80;21037;-86
2022/10/22 03:24:39;;;;;;;38.42;29.85;;;;;;;9.20;78.46;100792.23;1721444;82;21117;-87
2022/10/22 03:27:06;;;;;;;39.30;28.02;;;;;;;9.17;78.43;100788.62;1747206;80;21096;-86
2022/10/22 03:29:34;;;;;;;37.80;29.70;;;;;;;9.14;78.53;100789.00;1747273;82;22466;-87
2022/10/22 03:32:01;;;;;;;41.77;30.15;;;;;;;9.11;78.57;100785.38;1747366;82;21145;-87
2022/10/22 03:34:28;;;;;;;39.05;30.23;;;;;;;9.11;78.61;100797.20;1747103;81;21077;-86
2022/10/22 03:36:59;;;;;;;39.27;29.27;;;;;;;9.12;78.70;100793.31;1747484;82;21479;-86
2022/10/22 03:39:26;;;;;;;46.40;30.27;;;;;;;9.12;78.71;100789.77;1746993;80;21120;-87
2022/10/22 03:41:53;;;;;;;40.20;30.00;;;;;;;9.15;78.79;100790.76;1747159;82;21740;-87
2022/10/22 03:44:19;;;;;;;38.78;29.57;;;;;;;9.16;78.82;100792.98;1723231;82;21611;-87
2022/10/22 03:46:46;;;;;;;39.48;29.90;;;;;;;9.15;78.77;100794.70;1736915;81;21484;-88
2022/10/22 03:49:13;;;;;;;43.23;30.60;;;;;;;9.15;78.79;100797.76;1734022;80;21078;-87
2022/10/22 03:51:40;;;;;;;39.67;30.17;;;;;;;9.16;78.75;100803.49;1747112;82;21603;-87
2022/10/22 03:54:06;;;;;;;38.00;29.10;;;;;;;9.14;78.76;100802.13;1747351;82;22526;-87
2022/10/22 03:56:33;;;;;;;37.28;29.12;;;;;;;9.04;78.85;100784.28;1723235;82;21095;-86
2022/10/22 03:59:00;;;;;;;40.67;31.33;;;;;;;9.18;78.97;100798.27;1747287;82;21132;-87
2022/10/22 04:01:28;;;;;;;41.28;30.10;;;;;;;9.20;78.94;100800.55;1747116;81;21089;-87
2022/10/22 04:03:55;;;;;;;41.92;31.48;;;;;;;9.22;79.03;100804.98;1696378;83;21160;-87
2022/10/22 04:06:21;;;;;;;43.23;31.17;;;;;;;9.26;79.05;100806.86;1692644;82;21775;-86
2022/10/22 04:08:48;;;;;;;38.95;31.07;;;;;;;9.28;78.97;100809.54;1740254;82;21586;-87
2022/10/22 04:11:15;;;;;;;40.67;31.48;;;;;;;9.28;78.93;100806.91;1747675;80;21057;-87
2022/10/22 04:13:42;;;;;;;41.50;31.45;;;;;;;9.29;78.94;100803.03;1747668;82;21128;-87
2022/10/22 04:16:20;;;;;;;43.35;32.48;;;;;;;9.30;78.94;100797.34;1691146;83;21121;-87
2022/10/22 04:18:47;;;;;;;44.60;32.20;;;;;;;9.31;78.91;100798.71;1734480;82;21766;-87
2022/10/22 04:21:16;;;;;;;39.95;31.62;;;;;;;9.31;78.79;100797.83;1727911;82;21043;-87
2022/10/22 04:23:47;;;;;;;41.58;30.77;;;;;;;9.30;78.83;100782.89;1705840;82;21071;-87
2022/10/22 04:26:14;;;;;;;43.38;32.23;;;;;;;9.29;78.83;100778.47;1711300;82;21615;-87
2022/10/22 04:28:41;;;;;;;45.23;33.05;;;;;;;9.25;78.78;100776.20;1745252;80;21116;-87
2022/10/22 04:31:13;;;;;;;39.55;31.00;;;;;;;9.22;78.70;100777.41;1744869;81;21812;-87
2022/10/22 04:33:41;;;;;;;47.10;33.57;;;;;;;9.20;78.81;100792.66;1745069;82;21093;-87
2022/10/22 04:36:16;;;;;;;44.70;32.20;;;;;;;9.19;78.83;100802.69;1744969;81;21112;-92
2022/10/22 04:38:43;;;;;;;46.18;32.60;;;;;;;9.17;78.85;100795.19;1746600;81;21043;-87
2022/10/22 04:41:13;;;;;;;43.78;30.90;;;;;;;9.15;78.88;100792.07;1724830;82;21603;-88
2022/10/22 04:43:39;;;;;;;42.58;31.75;;;;;;;9.14;78.97;100792.94;1734903;82;21949;-89
2022/10/22 04:46:08;;;;;;;43.17;31.68;;;;;;;9.15;79.01;100789.87;1681775;83;20902;-90
2022/10/22 04:48:36;;;;;;;41.20;31.20;;;;;;;9.16;79.08;100791.67;1740673;81;20990;-89
2022/10/22 04:51:03;;;;;;;42.08;32.73;;;;;;;9.17;79.11;100796.50;1741542;81;21041;-90
2022/10/22 04:53:30;;;;;;;43.63;31.70;;;;;;;9.16;79.20;100789.05;1752687;81;20995;-89
2022/10/22 04:56:19;;;;;;;46.00;31.85;;;;;;;9.15;79.12;100785.50;1741312;81;21858;-89
2022/10/22 04:58:53;;;;;;;42.00;32.67;;;;;;;9.15;79.20;100782.87;1747671;81;21382;-88
2022/10/22 05:01:23;;;;;;;44.08;32.28;;;;;;;9.19;79.35;100776.42;1746550;81;21785;-89
2022/10/22 05:03:52;;;;;;;41.42;31.35;;;;;;;9.23;79.34;100774.35;1747192;81;22377;-88
2022/10/22 05:06:19;;;;;;;44.08;32.28;;;;;;;9.23;79.26;100783.11;1754532;80;20982;-84
2022/10/22 05:08:47;;;;;;;44.53;33.13;;;;;;;9.21;79.15;100779.98;1741445;81;22411;-86
2022/10/22 05:11:18;;;;;;;41.02;32.83;;;;;;;9.18;79.25;100769.37;1741782;81;21014;-85
2022/10/22 05:13:49;;;;;;;45.67;32.93;;;;;;;9.17;79.29;100761.05;1741855;81;21041;-85
2022/10/22 05:16:14;;;;;;;47.10;33.40;;;;;;;9.19;79.43;100758.04;1714475;81;21109;-86
2022/10/22 05:18:43;;;;;;;45.50;32.67;;;;;;;9.23;79.48;100755.54;1743645;81;21073;-84
2022/10/22 05:21:15;;;;;;;49.95;33.60;;;;;;;9.25;79.41;100758.22;1727886;81;22605;-85
2022/10/22 05:23:43;;;;;;;50.92;35.43;;;;;;;9.28;79.54;100759.20;1757295;81;21472;-85
2022/10/22 05:26:11;;;;;;;48.42;36.10;;;;;;;9.30;79.38;100762.77;1741078;81;21136;-86
2022/10/22 05:28:41;;;;;;;47.88;35.88;;;;;;;9.30;79.38;100760.14;1748296;80;20976;-86
2022/10/22 05:31:09;;;;;;;47.48;35.95;;;;;;;9.29;79.31;100753.13;1740739;81;20995;-89
2022/10/22 05:33:36;;;;;;;47.80;34.95;;;;;;;9.26;79.22;100745.14;1741937;81;21804;-90
2022/10/22 05:36:04;;;;;;;47.10;34.75;;;;;;;9.20;79.14;100741.02;1752119;81;20986;-90
2022/10/22 05:38:33;;;;;;;48.10;34.25;;;;;;;9.15;79.10;100755.30;1749906;81;21477;-90
2022/10/22 05:41:07;;;;;;;48.80;34.27;;;;;;;9.10;79.14;100774.39;1761451;81;21046;-90
2022/10/22 05:43:36;;;;;;;42.17;33.23;;;;;;;9.02;79.03;100770.21;1738712;81;21006;-89
2022/10/22 05:46:09;;;;;;;50.65;35.48;;;;;;;8.97;79.19;100753.84;1739971;80;21696;-90
2022/10/22 05:48:40;;;;;;;55.40;37.90;;;;;;;8.93;79.12;100755.48;1736650;81;21436;-90
2022/10/22 05:51:10;;;;;;;52.85;36.77;;;;;;;8.90;79.14;100767.22;1754789;81;21304;-90
2022/10/22 05:53:42;;;;;;;54.23;36.48;;;;;;;8.87;79.27;100791.61;1743795;81;21083;-90
2022/10/22 05:56:13;;;;;;;51.08;37.38;;;;;;;8.83;79.22;100799.35;1735303;81;21080;-90
2022/10/22 05:58:42;;;;;;;59.85;40.35;;;;;;;8.85;79.48;100791.98;1724372;81;22628;-90
2022/10/22 06:01:13;;;;;;;56.28;38.25;;;;;;;8.89;79.52;100794.30;1740851;81;21014;-90
2022/10/22 06:03:41;;;;;;;54.00;39.55;;;;;;;8.95;79.64;100794.09;1744660;80;21013;-89
2022/10/22 06:06:25;;;;;;;53.42;37.88;;;;;;;9.02;79.69;100789.02;1751244;80;21058;-90
2022/10/22 06:08:53;;;;;;;;;;;;;;;9.11;79.87;100792.83;1749115;81;21501;-90
2022/10/22 06:11:26;;;;;;;54.40;36.98;;;;;;;9.21;79.83;100801.88;1738453;80;21961;-89
2022/10/22 06:13:53;;;;;;;50.15;37.00;;;;;;;9.27;79.72;100800.78;1743862;81;20995;-91
2022/10/22 06:16:19;;;;;;;51.08;38.02;;;;;;;9.33;79.78;100790.45;1737557;81;20994;-89
2022/10/22 06:18:46;;;;;;;46.58;36.73;;;;;;;9.42;79.83;100795.11;1757041;81;21508;-89
2022/10/22 06:21:14;;;;;;;54.30;37.65;;;;;;;9.49;79.77;100804.93;1747235;81;21074;-89
2022/10/22 06:23:44;;;;;;;47.98;34.67;;;;;;;9.56;79.66;100806.45;1736608;81;22898;-93
2022/10/22 06:26:11;;;;;;;47.15;35.20;;;;;;;9.59;79.66;100807.44;1708163;80;21447;-88
2022/10/22 06:28:37;;;;;;;44.03;33.83;;;;;;;9.66;79.81;100810.69;1756426;80;21061;-90
2022/10/22 06:31:05;;;;;;;47.10;33.48;;;;;;;9.76;79.83;100814.91;1758998;80;22148;-90
2022/10/22 06:33:33;;;;;;;43.48;33.38;;;;;;;9.81;79.73;100815.51;1759076;80;21061;-90
2022/10/22 06:36:17;;;;;;;41.37;32.20;;;;;;;9.89;79.76;100817.04;1766537;80;22490;-90
2022/10/22 06:38:44;;;;;;;49.05;32.58;;;;;;;9.95;79.64;100816.32;1764490;80;21526;-90
2022/10/22 06:41:15;;;;;;;42.62;32.75;;;;;;;10.01;79.59;100815.20;1767787;80;21531;-90
2022/10/22 06:43:46;;;;;;;43.63;31.52;;;;;;;10.06;79.50;100813.17;1751173;80;21126;-90
2022/10/22 06:46:20;;;;;;;43.15;32.28;;;;;;;10.10;79.47;100805.83;1746866;80;21104;-90
2022/10/22 06:48:51;;;;;;;51.00;37.20;;;;;;;10.13;79.40;100807.64;1751051;80;23063;-89
2022/10/22 06:51:18;;;;;;;49.10;35.75;;;;;;;10.19;79.39;100805.20;1756091;80;21080;-89
2022/10/22 06:53:45;;;;;;;46.53;34.43;;;;;;;10.22;79.24;100809.64;1743163;80;21062;-89
2022/10/22 06:56:14;;;;;;;53.83;36.17;;;;;;;10.23;79.15;100804.44;1720806;82;21661;-89
2022/10/22 06:58:41;;;;;;;44.70;33.42;;;;;;;10.25;79.32;100798.78;1752937;80;21066;-94
2022/10/22 07:01:12;;;;;;;39.18;32.35;;;;;;;10.35;79.34;100795.12;1764734;80;22573;-94
2022/10/22 07:03:41;;;;;;;42.25;34.27;;;;;;;10.41;79.24;100793.52;1765212;80;21114;-93
2022/10/22 07:06:11;;;;;;;47.30;34.23;;;;;;;10.44;79.18;100800.63;1760466;80;21100;-91
2022/10/22 07:08:38;;;;;;;44.23;33.13;;;;;;;10.49;79.14;100805.56;1730907;81;21078;-93
2022/10/22 07:11:10;;;;;;;45.17;34.48;;;;;;;10.53;79.15;100811.40;1742078;81;21088;-90
2022/10/22 07:13:37;;;;;;;44.73;33.88;;;;;;;10.52;79.03;100813.98;1706636;81;22551;-90
2022/10/22 07:16:05;;;;;;;39.48;31.50;;;;;;;10.56;79.12;100817.16;1680453;83;21563;-90
2022/10/22 07:18:32;;;;;;;41.25;30.72;;;;;;;10.53;78.89;100812.72;1687508;83;21346;-90
2022/10/22 07:20:59;;;;;;;40.67;32.10;;;;;;;10.54;79.16;100816.23;1695877;83;21082;-90
2022/10/22 07:23:26;;;;;;;39.53;31.95;;;;;;;10.53;78.99;100819.70;1685274;83;21069;-90
2022/10/22 07:25:53;;;;;;;44.10;31.93;;;;;;;10.53;78.90;100821.02;1686083;83;21736;-90
2022/10/22 07:28:20;;;;;;;40.43;32.28;;;;;;;10.54;78.99;100821.06;1689808;83;21103;-90
2022/10/22 07:30:47;;;;;;;46.90;34.60;;;;;;;10.58;79.10;100824.23;1730018;80;21069;-90
2022/10/22 07:33:14;;;;;;;46.35;34.25;;;;;;;10.64;79.16;100824.41;1705716;81;21167;-90
2022/10/22 07:35:42;;;;;;;44.55;34.53;;;;;;;10.68;79.05;100818.38;1677760;83;22009;-90
2022/10/22 07:38:11;;;;;;;44.13;33.28;;;;;;;10.75;79.19;100823.78;1763937;80;21560;-90
2022/10/22 07:40:49;;;;;;;46.95;34.58;;;;;;;10.82;79.09;100822.66;1755461;80;21051;-90
2022/10/22 07:43:21;;;;;;;44.30;33.75;;;;;;;10.86;79.05;100827.14;1751296;80;21022;-89
2022/10/22 07:45:48;;;;;;;44.33;34.60;;;;;;;10.87;78.92;100833.33;1753406;80;20983;-89
2022/10/22 07:48:15;;;;;;;43.60;34.33;;;;;;;10.69;78.76;100800.83;1760307;80;20993;-90
2022/10/22 07:50:42;;;;;;;48.65;35.85;;;;;;;10.87;78.76;100835.52;1756618;80;21726;-90
2022/10/22 07:53:09;;;;;;;43.38;34.88;;;;;;;10.89;78.85;100835.56;1696581;82;21066;-90
2022/10/22 07:55:36;;;;;;;44.40;33.98;;;;;;;10.96;79.02;100836.59;1687231;84;21062;-89
2022/10/22 07:58:08;;;;;;;47.98;34.92;;;;;;;11.04;78.99;100824.08;1701788;82;21014;-92
2022/10/22 08:00:38;;;;;;;43.20;33.70;;;;;;;11.16;79.20;100819.52;1722801;81;21584;-89
2022/10/22 08:03:20;;;;;;;44.15;35.38;;;;;;;11.31;79.28;100811.09;1751521;80;21829;-89
2022/10/22 08:05:47;;;;;;;49.95;38.65;;;;;;;11.46;79.25;100816.70;1752647;80;21014;-90
2022/10/22 08:08:16;;;;;;;51.23;38.50;;;;;;;11.54;78.80;100815.55;1745641;80;21425;-89
2022/10/22 08:10:45;;;;;;;54.42;38.28;;;;;;;11.55;78.74;100812.07;1753486;80;21439;-89
2022/10/22 08:13:12;;;;;;;50.40;37.85;;;;;;;11.63;78.81;100813.12;1728517;81;21106;-90
2022/10/22 08:15:39;;;;;;;44.77;35.35;;;;;;;11.68;78.64;100811.91;1753236;80;23185;-89
2022/10/22 08:18:08;;;;;;;50.15;37.93;;;;;;;11.71;78.42;100814.59;1733649;81;22183;-90
2022/10/22 08:20:34;;;;;;;50.03;40.03;;;;;;;11.76;78.64;100812.08;1752644;81;21050;-90
2022/10/22 08:23:01;;;;;;;57.98;40.50;;;;;;;11.81;78.54;100810.00;1737705;81;21614;-90
2022/10/22 08:25:28;;;;;;;58.10;44.10;;;;;;;11.87;78.37;100811.88;1740468;81;21102;-89
2022/10/22 08:27:55;;;;;;;56.00;46.42;;;;;;;11.85;78.28;100811.83;1743693;80;21775;-89
2022/10/22 08:30:22;;;;;;;55.98;46.20;;;;;;;11.93;78.34;100812.02;1741571;81;21070;-89
2022/10/22 08:32:49;;;;;;;70.15;56.00;;;;;;;12.03;78.34;100807.81;1736039;80;21062;-90
2022/10/22 08:35:15;;;;;;;68.85;56.30;;;;;;;12.14;78.35;100808.91;1732064;80;21082;-90
2022/10/22 08:37:42;;;;;;;73.25;58.48;;;;;;;12.21;78.14;100802.02;1744602;80;21062;-88
2022/10/22 08:40:11;;;;;;;75.52;57.98;;;;;;;12.29;78.03;100807.44;1741411;81;21819;-90
2022/10/22 08:43:10;;;;;;;60.05;49.03;;;;;;;12.34;77.94;100807.98;1744563;80;21097;-89
2022/10/22 08:45:58;;;;;;;57.65;47.83;;;;;;;12.39;77.92;100816.89;1730812;81;21152;-92
2022/10/22 08:48:46;;;;;;;60.95;45.80;;;;;;;12.44;77.83;100816.95;1739582;80;21075;-91
2022/10/22 08:51:23;;;;;;;57.25;45.52;;;;;;;12.45;77.68;100814.35;1740053;80;21112;-91
2022/10/22 08:54:21;;;;;;;51.95;40.80;;;;;;;12.47;77.54;100817.47;1712515;81;21755;-91
2022/10/22 08:57:29;;;;;;;50.75;40.58;;;;;;;12.45;77.59;100813.03;1730887;81;21064;-91
2022/10/22 09:00:26;;;;;;;49.20;37.80;;;;;;;12.51;77.87;100806.09;1739816;80;21086;-91
2022/10/22 09:03:01;;;;;;;50.98;40.17;;;;;;;12.55;77.70;100811.44;1746176;80;21130;-91
2022/10/22 09:05:36;;;;;;;76.67;52.80;;;;;;;12.58;77.53;100812.83;1694318;80;21516;-90
2022/10/22 09:14:39;;;;;;;49.13;39.27;;;;;;;12.69;77.68;100819.63;1740277;80;21103;-85
2022/10/22 09:17:35;;;;;;;51.23;39.63;;;;;;;12.85;77.71;100810.20;1734011;81;21042;-85
2022/10/22 09:20:16;;;;;;;51.25;39.65;;;;;;;12.99;77.69;100817.92;1678634;83;21110;-87
2022/10/22 09:22:49;;;;;;;48.85;38.40;;;;;;;13.11;77.51;100826.92;1665284;83;21786;-87
2022/10/22 09:25:22;;;;;;;;;;;;;;;13.19;77.50;100828.83;1674814;84;21218;-87
2022/10/22 09:27:49;;;;;;;47.80;38.25;;;;;;;13.25;77.31;100829.76;1683799;84;20220;-87
2022/10/22 09:30:21;;;;;;;49.20;37.20;;;;;;;13.29;77.45;100829.84;1692535;84;21081;-88
2022/10/22 09:33:04;;;;;;;;;;;;;;;13.38;77.47;100824.73;1700307;84;21295;-89
2022/10/22 09:35:46;;;;;;;48.92;38.75;;;;;;;13.50;77.48;100830.63;1682406;84;21761;-88
2022/10/22 09:38:15;;;;;;;50.17;40.17;;;;;;;13.60;77.37;100834.28;1678540;84;21003;-87
2022/10/22 09:40:53;;;;;;;44.08;36.08;;;;;;;13.71;77.36;100834.44;1665223;82;21180;-88
2022/10/22 09:43:20;;;;;;;48.25;37.35;;;;;;;13.76;77.17;100836.72;1671830;83;21215;-91
2022/10/22 09:46:10;;;;;;;45.80;36.58;;;;;;;13.84;77.22;100835.49;1694891;84;21628;-91
2022/10/22 09:48:58;;;;;;;43.78;34.67;;;;;;;13.88;77.05;100834.66;1570962;89;21770;-92
2022/10/22 09:52:04;;;;;;;42.75;32.88;;;;;;;13.95;77.04;100833.42;1544521;92;21066;-91
2022/10/22 09:54:40;;;;;;;44.35;33.55;;;;;;;14.02;76.96;100837.46;1566053;86;21144;-90
2022/10/22 09:57:22;;;;;;;40.55;31.17;;;;;;;14.03;76.81;100835.28;1613196;87;21164;-93
2022/10/22 09:59:56;;;;;;;41.40;30.60;;;;;;;14.02;76.62;100830.84;1635505;87;21141;-86
2022/10/22 10:02:29;;;;;;;39.95;29.57;;;;;;;14.03;76.68;100828.23;1623856;87;21974;-86
2022/10/22 10:04:59;;;;;;;40.30;30.97;;;;;;;14.10;76.70;100826.55;1636396;86;21804;-86
2022/10/22 10:07:32;;;;;;;39.75;30.62;;;;;;;14.12;76.62;100823.05;1631379;87;21099;-86
2022/10/22 10:10:00;;;;;;;45.12;31.40;;;;;;;14.17;76.69;100813.81;1631380;87;21610;-86
2022/10/22 10:12:47;;;;;;;45.52;30.20;;;;;;;14.26;76.75;100811.72;1632091;87;21119;-86
2022/10/22 10:15:37;;;;;;;43.52;31.55;;;;;;;14.37;76.81;100807.42;1632562;87;22850;-86
2022/10/22 10:18:52;;;;;;;39.78;29.85;;;;;;;14.38;76.50;100794.20;1618815;87;21530;-86
2022/10/22 10:21:52;;;;;;;44.38;29.72;;;;;;;14.54;76.29;100807.14;1616808;87;21107;-86
2022/10/22 10:24:43;;;;;;;36.25;28.23;;;;;;;14.57;76.10;100805.89;1633484;87;21187;-86
2022/10/22 10:27:39;;;;;;;41.73;31.87;;;;;;;14.62;75.88;100803.31;1624783;87;21348;-86
2022/10/22 10:30:18;;;;;;;71.45;50.15;;;;;;;14.67;75.83;100802.89;1603998;88;21109;-86
2022/10/22 10:33:05;;;;;;;61.73;47.35;;;;;;;14.81;76.06;100797.73;1594950;87;21600;-86
2022/10/22 10:35:58;;;;;;;48.58;42.55;;;;;;;14.95;76.01;100809.76;1615420;88;21167;-86
2022/10/22 10:38:59;;;;;;;36.03;29.05;;;;;;;15.12;75.91;100805.91;1600562;88;21092;-89
2022/10/22 10:41:37;;;;;;;32.33;26.15;;;;;;;15.20;75.62;100808.61;1616065;87;21108;-85
2022/10/22 10:44:43;;;;;;;32.00;27.22;;;;;;;15.31;75.38;100809.57;1700600;83;21832;-86
2022/10/22 10:47:41;;;;;;;30.65;24.65;;;;;;;15.42;75.30;100805.67;1683703;83;21079;-86
2022/10/22 10:50:47;;;;;;;28.07;23.67;;;;;;;15.51;75.15;100801.30;1685430;83;21049;-85
2022/10/22 10:53:57;;;;;;;33.30;25.70;;;;;;;15.60;74.91;100800.88;1709553;82;21172;-86
2022/10/22 10:56:55;;;;;;;32.28;24.70;;;;;;;15.69;74.69;100799.61;1712822;82;21392;-88
2022/10/22 11:00:00;;;;;;;32.48;25.15;;;;;;;15.75;74.46;100805.00;1736165;82;21125;-86
2022/10/22 11:03:13;;;;;;;31.75;26.02;;;;;;;15.75;74.28;100799.69;1688609;82;21113;-85
2022/10/22 11:05:59;;;;;;;34.05;26.48;;;;;;;15.78;74.33;100798.81;1653400;84;21130;-85
2022/10/22 11:08:33;;;;;;;31.90;26.62;;;;;;;15.76;74.18;100797.92;1701179;82;21087;-88
2022/10/22 11:11:07;;;;;;;30.85;25.27;;;;;;;15.70;73.90;100794.31;1700601;83;21366;-88
2022/10/22 11:14:04;;;;;;;31.35;25.10;;;;;;;15.67;73.93;100794.32;1711779;82;22421;-86
2022/10/22 11:16:44;;;;;;;28.00;23.12;;;;;;;15.65;73.86;100792.52;1675891;83;20955;-85
2022/10/22 11:19:24;;;;;;;27.67;23.18;;;;;;;15.61;73.85;100785.43;1698807;82;21090;-88
2022/10/22 11:22:03;;;;;;;26.33;22.15;;;;;;;15.57;73.73;100789.83;1708580;83;21133;-88
2022/10/22 11:24:37;;;;;;;28.65;23.22;;;;;;;15.49;73.61;100784.48;1676044;83;21070;-85
2022/10/22 11:27:32;;;;;;;27.85;22.70;;;;;;;15.46;73.81;100783.58;1741934;80;21757;-86
2022/10/22 11:30:06;;;;;;;26.42;21.75;;;;;;;15.45;73.82;100785.36;1742995;80;21041;-86
2022/10/22 11:32:33;;;;;;;25.68;21.45;;;;;;;15.33;73.53;100786.59;1777824;80;21658;-85
2022/10/22 11:35:05;;;;;;;27.40;21.57;;;;;;;15.26;73.86;100785.69;1758502;80;21073;-86
2022/10/22 11:37:37;;;;;;;26.80;23.07;;;;;;;15.28;73.97;100788.36;1756466;80;21072;-86
2022/10/22 11:40:20;;;;;;;28.87;22.67;;;;;;;15.26;73.92;100788.75;1779607;80;21688;-85
2022/10/22 11:43:06;;;;;;;31.75;26.45;;;;;;;15.19;73.96;100795.80;1742219;82;21073;-85
2022/10/22 11:45:42;;;;;;;28.17;22.37;;;;;;;15.13;74.02;100802.40;1763080;79;21074;-85
2022/10/22 11:48:17;;;;;;;29.80;25.97;;;;;;;15.06;74.06;100797.92;1775646;80;21173;-86
2022/10/22 11:50:58;;;;;;;26.85;21.80;;;;;;;15.03;74.14;100803.19;1744166;82;21007;-85
2022/10/22 11:53:35;;;;;;;22.55;20.08;;;;;;;15.01;74.28;100800.97;1756886;80;23352;-86